Time;durP1;ratioP1;P1;durP2;ratioP2;P2;SDS_P1;SDS_P2;PMS_P1;PMS_P2;Temp;Humidity;BMP_temperature;BMP_pressure;BME280_temperature;BME280_humidity;BME280_pressure;Samples;Min_cycle;Max_cycle;Signal;HPM_P1;HPM_P2
2021/06/29 00:00:24;;;;;;;3.08;2.75;;;17.30;99.90;;;;;;5189851;27;20374;-83
2021/06/29 00:03:38;;;;;;;4.13;3.72;;;17.30;99.90;;;;;;5146884;27;20538;-82
2021/06/29 00:06:42;;;;;;;3.35;3.00;;;17.20;99.90;;;;;;5053488;27;20419;-82
2021/06/29 00:09:54;;;;;;;3.88;2.63;;;17.20;99.90;;;;;;5107312;27;20461;-84
2021/06/29 00:13:10;;;;;;;3.88;3.58;;;17.20;99.90;;;;;;5126057;27;20423;-82
2021/06/29 00:16:17;;;;;;;3.35;3.15;;;17.10;99.90;;;;;;5191883;27;20379;-83
2021/06/29 00:19:22;;;;;;;3.33;2.95;;;17.10;99.90;;;;;;5043172;28;20543;-81
2021/06/29 00:22:30;;;;;;;3.67;3.20;;;17.00;99.90;;;;;;5075825;27;20569;-81
2021/06/29 00:25:32;;;;;;;7.50;2.80;;;17.00;99.90;;;;;;5170697;27;20398;-81
2021/06/29 00:28:31;;;;;;;6.60;2.67;;;16.90;99.90;;;;;;5188206;27;20822;-85
2021/06/29 00:31:35;;;;;;;2.95;2.75;;;16.90;99.90;;;;;;5191486;27;20371;-83
2021/06/29 00:34:38;;;;;;;3.65;3.35;;;16.90;99.90;;;;;;5111418;27;20351;-81
2021/06/29 00:37:54;;;;;;;5.25;2.53;;;16.90;99.90;;;;;;5106878;27;20418;-83
2021/06/29 00:40:54;;;;;;;3.40;2.78;;;16.90;99.90;;;;;;5135883;27;20336;-82
2021/06/29 00:43:59;;;;;;;8.10;3.47;;;16.80;99.90;;;;;;5091701;28;20685;-81
2021/06/29 00:47:02;;;;;;;6.38;3.85;;;16.80;99.90;;;;;;5191537;27;20378;-83
2021/06/29 00:50:11;;;;;;;3.97;3.35;;;16.70;99.90;;;;;;5161408;27;20414;-84
2021/06/29 00:53:28;;;;;;;1.98;1.80;;;16.70;99.90;;;;;;5057246;28;20177;-83
2021/06/29 00:56:27;;;;;;;3.75;3.03;;;16.70;99.90;;;;;;5189962;27;20375;-81
2021/06/29 00:59:33;;;;;;;4.80;3.33;;;16.60;99.90;;;;;;5112537;27;20422;-84
2021/06/29 01:02:37;;;;;;;5.40;3.13;;;16.70;99.90;;;;;;5071816;27;20729;-81
2021/06/29 01:05:43;;;;;;;3.70;3.40;;;16.60;99.90;;;;;;5108981;27;20809;-85
2021/06/29 01:08:49;;;;;;;4.22;2.70;;;16.50;99.90;;;;;;5558030;22;20393;-91
2021/06/29 01:44:10;;;;;;;8.54;2.83;;;16.50;99.90;;;;;;4895225;22;31016601;-90
2021/06/29 01:47:57;;;;;;;2.83;2.63;;;16.50;99.90;;;;;;6197996;22;20435;-87
2021/06/29 02:01:29;;;;;;;3.03;2.78;;;16.60;99.90;;;;;;5479171;22;18759908;-89
2021/06/29 02:15:43;;;;;;;6.97;2.72;;;16.50;99.90;;;;;;5061230;28;20754;-88
2021/06/29 02:29:08;;;;;;;;;;;;;;;;;;;;;
2021/06/29 02:55:05;;;;;;;2.92;2.72;;;16.50;99.90;;;;;;5292880;23;20806787;-86
2021/06/29 04:26:31;;;;;;;;;;;;;;;;;;;;;
2021/06/29 04:47:35;;;;;;;3.70;3.35;;;16.40;99.90;;;;;;6114409;23;20041;-91
2021/06/29 05:02:09;;;;;;;8.02;5.50;;;16.40;99.90;;;;;;5077857;27;20396;-86
2021/06/29 05:06:01;;;;;;;3.25;3.05;;;16.50;99.90;;;;;;5163120;27;20416;-85
2021/06/29 06:16:24;;;;;;;;;;;;;;;;;;;;;
2021/06/29 06:49:16;;;;;;;5.15;3.55;;;16.60;99.90;;;;;;5337979;22;19399322;-88
2021/06/29 07:02:55;;;;;;;2.67;2.47;;;16.50;99.90;;;;;;5047290;28;20765;-82
2021/06/29 07:05:57;;;;;;;2.05;1.92;;;15.80;99.90;;;;;;5163618;27;20386;-82
2021/06/29 07:08:57;;;;;;;2.20;2.10;;;15.70;99.90;;;;;;5179246;27;20429;-83
2021/06/29 07:12:05;;;;;;;3.67;2.85;;;15.80;99.90;;;;;;5191718;27;20374;-82
2021/06/29 07:15:07;;;;;;;2.55;2.35;;;16.00;99.90;;;;;;5191772;27;20378;-83
2021/06/29 07:18:16;;;;;;;3.15;2.10;;;16.10;99.90;;;;;;5160019;27;20386;-84
2021/06/29 07:20:59;;;;;;;2.23;2.00;;;16.30;99.90;;;;;;5026888;27;2545276;-84
2021/06/29 07:23:41;;;;;;;3.58;2.88;;;16.30;99.90;;;;;;5067608;28;20387;-82
2021/06/29 07:26:45;;;;;;;2.60;1.88;;;16.40;99.90;;;;;;5016835;27;20390;-88
2021/06/29 07:29:38;;;;;;;2.20;2.00;;;16.50;99.90;;;;;;4953529;27;3480919;-84
2021/06/29 07:32:20;;;;;;;3.88;2.13;;;16.70;99.90;;;;;;5068299;28;20371;-82
2021/06/29 07:35:06;;;;;;;2.00;1.88;;;17.40;99.90;;;;;;5068452;28;20395;-81
2021/06/29 07:37:51;;;;;;;2.13;2.03;;;17.60;99.90;;;;;;5043955;27;20394;-82
2021/06/29 07:40:36;;;;;;;2.55;1.98;;;17.50;99.90;;;;;;5060882;27;20379;-82
2021/06/29 07:43:24;;;;;;;3.10;2.70;;;17.40;99.90;;;;;;5108730;27;20874;-81
2021/06/29 07:46:09;;;;;;;2.92;2.72;;;17.30;99.90;;;;;;5063249;27;20718;-80
2021/06/29 07:49:00;;;;;;;3.83;2.25;;;17.30;99.90;;;;;;5087578;27;1345643;-81
2021/06/29 07:51:42;;;;;;;2.53;2.35;;;17.30;99.90;;;;;;5067332;28;20383;-80
2021/06/29 07:54:28;;;;;;;2.80;2.38;;;17.30;99.90;;;;;;5013784;27;20403;-79
2021/06/29 08:22:16;;;;;;;4.10;1.77;;;18.40;99.90;;;;;;5551104;22;15495763;-87
2021/06/29 08:26:06;;;;;;;2.65;2.45;;;19.30;99.90;;;;;;5135610;27;20396;-89
2021/06/29 08:40:10;;;;;;;6.07;2.67;;;19.40;99.90;;;;;;5964320;22;4141723;-86
2021/06/29 08:59:41;;;;;;;2.03;1.83;;;20.10;99.90;;;;;;5511427;22;15125145;-85
2021/06/29 09:58:17;;;;;;;2.63;2.42;;;20.50;99.90;;;;;;5605000;22;15132982;-87
2021/06/29 10:16:21;;;;;;;3.13;1.75;;;21.10;99.90;;;;;;6124567;23;20437;-84
2021/06/29 10:24:14;;;;;;;1.73;1.60;;;20.90;99.90;;;;;;5041324;28;20045;-84
2021/06/29 11:02:36;;;;;;;3.03;1.70;;;21.80;99.90;;;;;;5037235;28;20131;-82
2021/06/29 11:05:23;;;;;;;1.33;1.23;;;21.90;99.90;;;;;;5046113;27;20787;-81
2021/06/29 11:08:27;;;;;;;1.70;1.60;;;21.80;99.90;;;;;;5068177;28;20409;-79
2021/06/29 11:11:14;;;;;;;1.08;1.08;;;22.00;99.90;;;;;;5068061;28;20874;-86
2021/06/29 11:14:01;;;;;;;2.10;1.58;;;22.00;99.90;;;;;;5067244;27;20450;-81
2021/06/29 11:16:59;;;;;;;0.90;0.90;;;22.10;99.90;;;;;;5058883;27;20379;-80
2021/06/29 11:20:07;;;;;;;1.40;1.30;;;22.10;99.90;;;;;;5129974;27;20395;-78
2021/06/29 11:23:01;;;;;;;1.30;1.20;;;22.30;99.90;;;;;;5008869;27;20502;-79
2021/06/29 11:25:54;;;;;;;1.13;1.02;;;22.40;99.90;;;;;;5095238;27;20377;-81
2021/06/29 11:29:05;;;;;;;1.23;0.90;;;22.50;99.90;;;;;;5057967;28;20589;-89
2021/06/29 11:31:51;;;;;;;1.00;1.00;;;22.60;99.90;;;;;;5088814;28;20389;-88
2021/06/29 11:34:37;;;;;;;1.52;1.42;;;22.60;99.90;;;;;;5012488;27;20425;-87
2021/06/29 11:37:19;;;;;;;1.10;1.10;;;22.60;99.90;;;;;;5060258;27;20715;-83
2021/06/29 11:40:05;;;;;;;0.85;0.82;;;22.50;99.90;;;;;;5089085;28;20377;-81
2021/06/29 11:43:12;;;;;;;1.45;1.35;;;22.50;99.90;;;;;;5009954;27;20395;-85
2021/06/29 11:45:59;;;;;;;1.15;1.10;;;22.50;99.90;;;;;;5028547;27;20425;-87
2021/06/29 11:48:43;;;;;;;1.73;1.63;;;22.50;99.90;;;;;;5123959;27;20128;-88
2021/06/29 11:51:51;;;;;;;1.63;1.10;;;22.60;99.90;;;;;;5088980;28;20382;-80
2021/06/29 11:54:38;;;;;;;1.17;1.13;;;22.80;99.90;;;;;;5086216;27;20122;-82
2021/06/29 11:57:46;;;;;;;1.52;1.17;;;22.90;99.90;;;;;;5044197;27;20375;-84
2021/06/29 12:00:36;;;;;;;1.27;1.17;;;22.80;99.90;;;;;;5104292;27;20437;-89
2021/06/29 12:03:22;;;;;;;1.27;1.17;;;22.80;99.90;;;;;;5068699;28;20378;-86
2021/06/29 12:06:06;;;;;;;1.30;1.20;;;22.80;99.90;;;;;;5067780;27;20434;-86
2021/06/29 12:09:00;;;;;;;1.48;1.20;;;23.00;99.90;;;;;;5054158;27;21033;-77
2021/06/29 12:11:45;;;;;;;2.15;1.95;;;23.10;99.90;;;;;;5128385;27;20442;-76
2021/06/29 12:14:33;;;;;;;1.88;1.58;;;22.90;99.90;;;;;;5053377;27;20123;-78
2021/06/29 12:17:17;;;;;;;1.83;1.20;;;22.90;99.90;;;;;;5046000;27;20394;-76
2021/06/29 12:20:08;;;;;;;1.67;1.58;;;23.00;99.90;;;;;;5108457;27;20376;-78
2021/06/29 12:22:57;;;;;;;1.00;1.00;;;23.00;99.90;;;;;;5007925;27;20398;-82
2021/06/29 12:26:04;;;;;;;1.70;1.60;;;23.00;99.90;;;;;;5085185;27;20442;-82
2021/06/29 12:28:49;;;;;;;1.33;1.23;;;23.20;99.90;;;;;;4869286;27;5172179;-81
2021/06/29 12:31:32;;;;;;;5.53;1.33;;;23.30;99.90;;;;;;5172598;27;20592;-80
2021/06/29 12:34:24;;;;;;;1.63;1.52;;;23.40;99.90;;;;;;5017137;27;20406;-81
2021/06/29 12:37:12;;;;;;;1.65;1.55;;;23.40;99.90;;;;;;5094957;27;20436;-83
2021/06/29 12:40:10;;;;;;;2.20;1.77;;;23.30;99.90;;;;;;5069524;27;20897;-76
2021/06/29 12:42:54;;;;;;;1.77;1.67;;;23.40;99.90;;;;;;5027842;28;20408;-79
2021/06/29 12:45:40;;;;;;;1.90;1.80;;;23.40;99.90;;;;;;5095068;27;20269;-79
2021/06/29 12:48:24;;;;;;;2.53;1.40;;;23.40;99.90;;;;;;5107947;27;20934;-80
2021/06/29 12:51:16;;;;;;;1.63;1.52;;;23.40;99.90;;;;;;5108540;27;20489;-80
2021/06/29 12:54:06;;;;;;;1.30;1.30;;;23.50;99.90;;;;;;5027726;27;20440;-80
2021/06/29 12:57:12;;;;;;;3.67;1.55;;;23.40;99.90;;;;;;5060264;27;1477494;-82
2021/06/29 13:00:38;;;;;;;1.95;1.85;;;23.20;99.90;;;;;;5081831;22;20387;-81
2021/06/29 13:03:31;;;;;;;1.60;1.50;;;23.20;99.90;;;;;;5108441;27;20394;-82
2021/06/29 13:06:22;;;;;;;2.10;1.33;;;23.20;99.90;;;;;;5020138;27;20971;-82
2021/06/29 13:09:39;;;;;;;2.15;1.95;;;23.20;99.90;;;;;;5060341;27;20458;-84
2021/06/29 13:12:29;;;;;;;1.85;1.75;;;23.20;99.90;;;;;;5141905;27;20293;-82
2021/06/29 13:15:19;;;;;;;1.50;1.40;;;23.40;99.90;;;;;;5058966;27;2016976;-78
2021/06/29 13:18:07;;;;;;;2.50;2.38;;;23.60;99.90;;;;;;5022396;27;20387;-84
2021/06/29 13:20:49;;;;;;;3.20;1.85;;;23.70;99.90;;;;;;5096429;27;1306564;-82
2021/06/29 13:23:35;;;;;;;3.22;2.10;;;23.80;99.90;;;;;;5087321;28;20443;-80
2021/06/29 13:26:19;;;;;;;3.50;2.00;;;23.80;99.90;;;;;;5033751;27;20412;-81
2021/06/29 13:29:03;;;;;;;2.22;2.13;;;23.90;99.90;;;;;;5115635;27;20189;-82
2021/06/29 13:42:27;;;;;;;4.07;2.10;;;23.90;99.90;;;;;;5076108;27;20990;-88
2021/06/29 13:45:10;;;;;;;1.77;1.67;;;23.70;99.90;;;;;;5067412;27;20383;-87
2021/06/29 13:47:54;;;;;;;3.88;3.60;;;23.60;99.90;;;;;;5071953;28;20489;-84
2021/06/29 13:50:42;;;;;;;2.05;1.85;;;23.70;99.90;;;;;;5012147;27;20442;-85
2021/06/29 13:53:30;;;;;;;2.72;2.53;;;24.10;99.90;;;;;;5041488;27;20942;-87
2021/06/29 13:56:35;;;;;;;3.30;2.38;;;24.30;99.90;;;;;;5067806;28;21280;-84
2021/06/29 13:59:44;;;;;;;2.75;2.10;;;24.50;99.90;;;;;;5068281;28;20386;-88
2021/06/29 14:03:04;;;;;;;3.50;3.20;;;24.40;99.90;;;;;;5007876;27;20852;-86
2021/06/29 14:05:52;;;;;;;2.55;2.35;;;24.20;99.90;;;;;;5031145;27;20919;-84
2021/06/29 14:08:40;;;;;;;2.47;2.28;;;24.10;99.90;;;;;;5061480;27;20890;-87
2021/06/29 14:11:22;;;;;;;4.22;2.22;;;24.30;99.90;;;;;;5068196;28;20386;-82
2021/06/29 14:14:06;;;;;;;4.32;2.50;;;24.50;99.90;;;;;;5045949;28;20378;-83
2021/06/29 14:16:55;;;;;;;3.25;2.65;;;24.40;99.90;;;;;;5102624;27;20378;-87
2021/06/29 14:19:41;;;;;;;10.43;3.70;;;24.40;99.90;;;;;;5108271;27;20517;-84
2021/06/29 14:22:26;;;;;;;5.18;2.45;;;24.40;99.90;;;;;;5016706;27;20395;-83
2021/06/29 14:25:25;;;;;;;5.15;4.25;;;24.50;99.90;;;;;;5082106;27;20392;-85
2021/06/29 14:28:10;;;;;;;3.92;3.63;;;24.40;99.90;;;;;;5088481;28;20386;-81
2021/06/29 14:30:57;;;;;;;3.53;3.22;;;24.10;99.90;;;;;;5028234;27;20440;-86
2021/06/29 14:33:41;;;;;;;4.85;3.53;;;24.30;99.90;;;;;;5066051;28;21113;-85
2021/06/29 14:36:26;;;;;;;4.63;2.95;;;24.30;99.90;;;;;;5067116;27;20379;-82
2021/06/29 14:39:10;;;;;;;4.22;3.83;;;24.10;99.90;;;;;;5107794;27;20574;-81
2021/06/29 14:41:50;;;;;;;4.07;3.22;;;23.80;99.90;;;;;;5030996;27;20407;-82
2021/06/29 14:44:32;;;;;;;2.88;2.67;;;23.50;99.90;;;;;;5105135;27;20529;-85
2021/06/29 14:47:16;;;;;;;5.88;3.72;;;23.30;99.90;;;;;;5108421;27;20888;-83
2021/06/29 14:50:06;;;;;;;3.15;2.95;;;23.10;99.90;;;;;;5120020;27;20393;-84
2021/06/29 14:52:50;;;;;;;4.28;3.97;;;22.90;99.90;;;;;;5099289;27;20444;-84
2021/06/29 14:55:32;;;;;;;3.90;3.60;;;22.70;99.90;;;;;;5068131;28;20855;-86
2021/06/29 14:58:16;;;;;;;4.10;2.90;;;22.60;99.90;;;;;;5036945;28;20444;-83
2021/06/29 15:01:06;;;;;;;3.50;3.28;;;22.60;99.90;;;;;;5131209;27;20759;-84
2021/06/29 15:03:53;;;;;;;4.40;4.10;;;22.50;99.90;;;;;;5068263;28;20379;-84
2021/06/29 15:06:40;;;;;;;4.10;3.63;;;22.40;99.90;;;;;;5011475;27;20445;-84
2021/06/29 15:09:26;;;;;;;9.48;3.45;;;22.30;99.90;;;;;;5080721;27;20396;-86
2021/06/29 15:12:18;;;;;;;4.35;2.20;;;22.30;99.90;;;;;;5067884;28;20513;-82
2021/06/29 15:15:33;;;;;;;1.85;1.08;;;21.80;99.90;;;;;;5089402;27;20509;-83
2021/06/29 15:23:06;;;;;;;4.20;1.40;;;18.30;99.90;;;;;;5038166;27;20508;-85
2021/06/29 15:26:04;;;;;;;2.45;1.42;;;15.80;99.90;;;;;;5029589;27;20466;-85
2021/06/29 15:28:56;;;;;;;7.93;1.30;;;14.30;99.90;;;;;;5155947;27;20194;-83
2021/06/29 15:31:43;;;;;;;1.38;0.95;;;13.50;99.90;;;;;;5067906;28;20375;-83
2021/06/29 15:34:27;;;;;;;3.20;1.23;;;13.00;99.90;;;;;;4944804;27;4356793;-83
2021/06/29 15:37:17;;;;;;;1.02;0.40;;;13.20;99.90;;;;;;5084427;27;21134;-82
2021/06/29 15:40:06;;;;;;;0.55;0.55;;;13.40;99.90;;;;;;5107910;27;20125;-82
2021/06/29 15:42:53;;;;;;;1.60;0.82;;;13.60;99.90;;;;;;5067419;27;20133;-83
2021/06/29 15:45:40;;;;;;;0.93;0.40;;;13.70;99.90;;;;;;5036303;27;20374;-80
2021/06/29 15:48:21;;;;;;;0.88;0.68;;;13.90;99.90;;;;;;5092839;27;1458835;-85
2021/06/29 15:51:04;;;;;;;4.82;0.90;;;13.90;99.90;;;;;;5108357;27;20377;-82
2021/06/29 15:53:55;;;;;;;0.38;0.38;;;13.80;99.90;;;;;;5021697;27;20779;-85
2021/06/29 15:56:55;;;;;;;0.60;0.60;;;13.60;99.90;;;;;;5094412;27;20396;-83
2021/06/29 15:59:41;;;;;;;0.80;0.80;;;13.40;99.90;;;;;;5067121;28;20472;-79
2021/06/29 16:02:25;;;;;;;0.65;0.65;;;13.30;99.90;;;;;;5017124;27;20530;-82
2021/06/29 16:05:10;;;;;;;0.50;0.50;;;13.10;99.90;;;;;;5049021;27;20379;-80
2021/06/29 16:07:53;;;;;;;4.95;0.80;;;13.00;99.90;;;;;;5106999;27;20778;-79
2021/06/29 16:10:38;;;;;;;0.70;0.50;;;13.00;99.90;;;;;;5112495;27;20131;-78
2021/06/29 16:13:21;;;;;;;0.60;0.60;;;13.00;99.90;;;;;;5091960;27;20129;-79
2021/06/29 16:16:05;;;;;;;1.50;0.98;;;13.00;99.90;;;;;;5129046;27;20118;-78
2021/06/29 16:18:52;;;;;;;1.10;0.82;;;12.90;99.90;;;;;;5048284;27;20420;-83
2021/06/29 16:21:38;;;;;;;0.70;0.70;;;12.90;99.90;;;;;;5037025;27;20522;-80
2021/06/29 16:24:23;;;;;;;0.70;0.70;;;12.90;99.90;;;;;;5127898;27;20114;-81
2021/06/29 16:27:09;;;;;;;0.52;0.52;;;12.90;99.90;;;;;;5088299;28;20507;-80
2021/06/29 16:29:53;;;;;;;0.88;0.88;;;12.90;99.90;;;;;;5030592;27;20386;-81
2021/06/29 16:32:38;;;;;;;1.30;0.80;;;12.90;99.90;;;;;;5122097;27;20122;-79
2021/06/29 16:35:24;;;;;;;1.38;1.00;;;12.90;99.90;;;;;;5067732;28;20446;-81
2021/06/29 16:38:09;;;;;;;0.80;0.80;;;13.00;99.90;;;;;;5052181;27;20380;-80
2021/06/29 16:40:53;;;;;;;1.15;0.88;;;13.10;99.90;;;;;;5099578;27;20446;-80
2021/06/29 16:43:37;;;;;;;1.13;0.80;;;13.10;99.90;;;;;;5064308;28;20384;-78
2021/06/29 16:46:19;;;;;;;5.30;1.23;;;13.10;99.90;;;;;;5019832;27;20395;-80
2021/06/29 16:49:03;;;;;;;1.00;0.70;;;13.00;99.90;;;;;;5152926;27;19927;-79
2021/06/29 16:51:49;;;;;;;1.15;0.90;;;13.10;99.90;;;;;;5115083;27;20134;-78
2021/06/29 16:54:35;;;;;;;2.35;0.95;;;13.10;99.90;;;;;;4938292;27;3228141;-80
2021/06/29 16:57:19;;;;;;;0.60;0.60;;;13.10;99.90;;;;;;5084696;27;20127;-83
2021/06/29 17:00:07;;;;;;;0.90;0.90;;;13.10;99.90;;;;;;5087853;27;20518;-82
2021/06/29 17:03:01;;;;;;;3.72;1.00;;;13.10;99.90;;;;;;5009161;27;20422;-81
2021/06/29 17:05:45;;;;;;;1.58;1.48;;;13.20;99.90;;;;;;5064948;28;20174;-81
2021/06/29 17:08:27;;;;;;;1.13;0.80;;;13.30;99.90;;;;;;5101485;27;1397203;-81
2021/06/29 17:11:09;;;;;;;1.92;1.00;;;13.40;99.90;;;;;;5106915;27;1307369;-80
2021/06/29 17:14:02;;;;;;;1.60;1.13;;;13.40;99.90;;;;;;5030385;27;20422;-82
2021/06/29 17:16:53;;;;;;;1.95;0.82;;;13.50;99.90;;;;;;5157562;27;20121;-81
2021/06/29 17:19:36;;;;;;;0.93;0.82;;;13.40;99.90;;;;;;5087988;27;21048;-81
2021/06/29 17:22:22;;;;;;;0.90;0.88;;;13.40;99.90;;;;;;5118457;27;20113;-81
2021/06/29 17:25:10;;;;;;;0.88;0.88;;;13.40;99.90;;;;;;5048006;27;20156;-80
2021/06/29 17:27:54;;;;;;;2.65;1.55;;;13.40;99.90;;;;;;5068057;28;20432;-79
2021/06/29 17:30:38;;;;;;;3.15;1.17;;;13.30;99.90;;;;;;5112366;27;19920;-80
2021/06/29 17:33:22;;;;;;;1.02;0.93;;;13.30;99.90;;;;;;5035892;27;20447;-82
2021/06/29 17:36:18;;;;;;;0.60;0.60;;;13.30;99.90;;;;;;5108718;27;20421;-81
2021/06/29 17:39:07;;;;;;;0.98;0.70;;;13.30;99.90;;;;;;5108027;27;20414;-83
2021/06/29 17:42:11;;;;;;;0.95;0.82;;;13.30;99.90;;;;;;5023078;27;20445;-82
2021/06/29 17:44:53;;;;;;;1.00;1.00;;;13.20;99.90;;;;;;5128796;27;20379;-83
2021/06/29 17:47:38;;;;;;;0.70;0.70;;;13.20;99.90;;;;;;5128825;27;20171;-81
2021/06/29 17:50:21;;;;;;;4.35;1.05;;;13.20;99.90;;;;;;5018800;27;20398;-82
2021/06/29 17:53:00;;;;;;;0.88;0.80;;;13.30;99.90;;;;;;5051844;27;20391;-80
2021/06/29 17:55:45;;;;;;;1.35;1.25;;;13.30;99.90;;;;;;5088420;27;20419;-80
2021/06/29 17:58:30;;;;;;;1.15;0.88;;;13.30;99.90;;;;;;5114239;27;19924;-82
2021/06/29 18:01:13;;;;;;;0.70;0.70;;;13.40;99.90;;;;;;5087782;27;20422;-81
2021/06/29 18:03:56;;;;;;;0.65;0.65;;;13.40;99.90;;;;;;5067313;28;20402;-80
2021/06/29 18:06:44;;;;;;;0.80;0.60;;;13.50;99.90;;;;;;5088795;27;20696;-83
2021/06/29 18:09:30;;;;;;;0.57;0.57;;;13.50;99.90;;;;;;5079961;27;20392;-81
2021/06/29 18:12:14;;;;;;;0.68;0.68;;;13.50;99.90;;;;;;5083521;28;20421;-81
2021/06/29 18:14:53;;;;;;;1.67;0.57;;;13.50;99.90;;;;;;5049001;27;21012;-82
2021/06/29 18:17:36;;;;;;;1.40;1.00;;;13.50;99.90;;;;;;5098955;27;20344;-81
2021/06/29 18:20:20;;;;;;;0.70;0.70;;;13.50;99.90;;;;;;5087206;27;1639970;-81
2021/06/29 18:23:04;;;;;;;5.32;1.25;;;13.50;99.90;;;;;;5122558;27;20386;-81
2021/06/29 18:25:49;;;;;;;2.80;1.08;;;13.50;99.90;;;;;;5032848;28;20875;-81
2021/06/29 18:28:34;;;;;;;1.52;1.17;;;13.50;99.90;;;;;;5103532;27;20389;-79
2021/06/29 18:31:16;;;;;;;0.90;0.90;;;13.50;99.90;;;;;;5093852;27;1480526;-79
2021/06/29 18:34:01;;;;;;;0.80;0.80;;;13.50;99.90;;;;;;5067153;27;20734;-78
2021/06/29 18:36:45;;;;;;;1.13;1.02;;;13.60;99.90;;;;;;5100597;27;20383;-79
2021/06/29 18:39:44;;;;;;;7.10;1.08;;;13.50;99.90;;;;;;5108953;27;20414;-84
2021/06/29 18:42:32;;;;;;;1.63;1.52;;;13.50;99.90;;;;;;5092779;27;20340;-85
2021/06/29 18:45:18;;;;;;;1.75;1.05;;;13.50;99.90;;;;;;5085681;27;20421;-84
2021/06/29 18:48:03;;;;;;;0.80;0.80;;;13.60;99.90;;;;;;5067796;28;20493;-86
2021/06/29 18:50:50;;;;;;;0.85;0.85;;;13.50;99.90;;;;;;5047406;28;20131;-83
2021/06/29 18:53:35;;;;;;;1.45;1.35;;;13.60;99.90;;;;;;5087701;27;20805;-84
2021/06/29 18:56:20;;;;;;;0.77;0.77;;;13.60;99.90;;;;;;5057431;28;20877;-85
2021/06/29 18:59:04;;;;;;;1.23;1.13;;;13.60;99.90;;;;;;5067807;28;20390;-85
2021/06/29 19:01:49;;;;;;;1.58;1.48;;;13.60;99.90;;;;;;5083587;27;20415;-85
2021/06/29 19:29:15;;;;;;;1.38;1.27;;;13.70;99.90;;;;;;4715646;30;20061;-90
2021/06/29 19:36:43;;;;;;;4.93;2.38;;;13.70;99.90;;;;;;4754845;24;20060;-89
2021/06/29 19:39:34;;;;;;;1.75;1.60;;;13.70;99.90;;;;;;5171311;27;20308;-89
2021/06/29 19:42:27;;;;;;;1.40;1.30;;;13.70;99.90;;;;;;5062654;27;20363;-88
2021/06/29 19:45:55;;;;;;;1.50;1.40;;;13.80;99.90;;;;;;4494366;27;17937655;-91
2021/06/29 19:48:51;;;;;;;5.18;1.30;;;13.80;99.90;;;;;;4898691;27;4511606;-90
2021/06/29 19:51:37;;;;;;;3.45;1.75;;;13.80;99.90;;;;;;5088544;27;20394;-89
2021/06/29 19:54:24;;;;;;;1.48;1.13;;;13.80;99.90;;;;;;5076963;27;20621;-89
2021/06/29 19:57:10;;;;;;;4.13;1.40;;;13.80;99.90;;;;;;5079139;27;20438;-89
2021/06/29 19:59:54;;;;;;;1.67;1.38;;;13.70;99.90;;;;;;5169772;27;20300;-88
2021/06/29 20:02:41;;;;;;;1.52;1.42;;;13.60;99.90;;;;;;5064662;27;20389;-88
2021/06/29 20:05:24;;;;;;;1.15;1.02;;;13.60;99.90;;;;;;5033646;27;1900153;-89
2021/06/29 20:08:34;;;;;;;1.48;1.38;;;13.60;99.90;;;;;;5186078;27;20629;-90
2021/06/29 20:11:27;;;;;;;1.75;1.65;;;13.60;99.90;;;;;;5088255;27;20387;-90
2021/06/29 20:14:14;;;;;;;1.55;1.40;;;13.50;99.90;;;;;;5079827;27;20755;-90
2021/06/29 20:17:01;;;;;;;1.95;1.33;;;13.60;99.90;;;;;;5073469;27;20414;-90
2021/06/29 20:19:47;;;;;;;1.48;1.38;;;13.50;99.90;;;;;;5150407;27;20865;-89
2021/06/29 20:22:31;;;;;;;3.70;1.38;;;13.30;99.90;;;;;;5112574;27;20384;-89
2021/06/29 20:25:16;;;;;;;1.20;1.10;;;13.30;99.90;;;;;;5045010;27;20903;-90
2021/06/29 20:27:59;;;;;;;1.70;1.60;;;13.40;99.90;;;;;;5149616;27;20922;-89
2021/06/29 20:30:44;;;;;;;4.07;1.45;;;13.40;99.90;;;;;;5009686;27;20391;-89
2021/06/29 20:33:32;;;;;;;4.93;2.08;;;13.40;99.90;;;;;;5137550;27;20354;-91
2021/06/29 20:36:22;;;;;;;2.40;1.30;;;13.30;99.90;;;;;;4983492;27;2490253;-90
2021/06/29 20:39:51;;;;;;;2.58;1.88;;;13.40;99.90;;;;;;5071299;27;20408;-93
2021/06/29 20:42:40;;;;;;;2.03;1.80;;;13.50;99.90;;;;;;5053753;27;20857;-90
2021/06/29 20:45:34;;;;;;;7.55;1.85;;;13.50;99.90;;;;;;5133139;27;20379;-94
2021/06/29 20:48:25;;;;;;;1.67;1.58;;;13.60;99.90;;;;;;5015018;27;3433400;-93
2021/06/29 20:51:49;;;;;;;2.20;1.77;;;13.60;99.90;;;;;;5173904;27;20303;-93
2021/06/29 20:55:24;;;;;;;1.70;1.60;;;13.60;99.90;;;;;;4432426;27;17830403;-94
2021/06/29 21:09:27;;;;;;;1.52;1.20;;;13.70;99.90;;;;;;5285395;22;22340499;-90
2021/06/29 21:50:14;;;;;;;1.77;1.67;;;13.70;99.90;;;;;;6018682;22;4252005;-91
2021/06/29 22:04:29;;;;;;;1.50;1.40;;;13.80;99.90;;;;;;6153638;22;1667670;-91
2021/06/29 22:54:08;;;;;;;1.17;1.00;;;13.40;99.90;;;;;;6234126;22;20477;-86
2021/06/29 22:57:18;;;;;;;1.55;1.40;;;13.40;99.90;;;;;;5022811;27;20427;-87
2021/06/29 23:00:56;;;;;;;1.27;1.20;;;13.30;99.90;;;;;;5142119;27;20698;-87
